Terminal Aerodrome Forecast
Issued by NWS

Home | Current Version | Previous Version | Text Only | Print | Product List | Glossary On
Versions: 1 2 3 4 5 6 7 8 9 10 11 12 13 14 15 16 17 18 19 20 21 22 23 24 25 26 27 28 29 30 31
000
FTUS46 KOTX 222331
TAFPUW
TAF
KPUW 222331Z 2300/2324 22008KT P6SM VCTS SCT100CB BKN150
      TEMPO 2300/2302 -SHRA BKN100
     FM230200 14005KT P6SM SCT100 BKN150
     FM230500 11004KT P6SM VCSH BKN100 OVC150
     FM230700 23005KT P6SM -SHRA SCT030 BKN050 OVC120
     FM231400 12005KT P6SM VCSH SCT090 BKN150=

USA.gov is the U.S. government's official web portal to all federal, state and local government web resources and services.